createdAt,value
2018-11-03T00:00:51.067Z,9.65
2018-11-03T00:03:19.665Z,8.65
2018-11-03T00:05:48.314Z,7.80
2018-11-03T00:08:16.910Z,8.55
2018-11-03T00:10:45.533Z,9.53
2018-11-03T00:13:14.146Z,9.58
2018-11-03T00:15:42.801Z,10.38
2018-11-03T00:18:11.446Z,8.85
2018-11-03T00:20:40.069Z,7.47
2018-11-03T00:23:09.152Z,11.10
2018-11-03T00:25:37.886Z,9.95
2018-11-03T00:28:06.757Z,9.80
2018-11-03T00:30:35.355Z,9.48
2018-11-03T00:33:04.061Z,10.05
2018-11-03T00:35:32.662Z,9.40
2018-11-03T00:38:01.261Z,10.45
2018-11-03T00:40:29.904Z,11.57
2018-11-03T00:42:58.475Z,11.18
2018-11-03T00:45:27.083Z,12.58
2018-11-03T00:47:55.711Z,12.05
2018-11-03T00:50:24.299Z,11.30
2018-11-03T00:52:52.897Z,11.30
2018-11-03T00:55:21.495Z,10.98
2018-11-03T00:57:50.077Z,11.57
2018-11-03T01:00:19.420Z,12.70
2018-11-03T01:02:49.081Z,12.37
2018-11-03T01:05:17.826Z,11.03
2018-11-03T01:07:46.972Z,12.75
2018-11-03T01:10:16.343Z,13.25
2018-11-03T01:12:44.991Z,11.65
2018-11-03T01:15:14.917Z,13.05
2018-11-03T01:17:43.640Z,13.80
2018-11-03T01:20:14.401Z,14.35
2018-11-03T01:22:43.241Z,14.68
2018-11-03T01:25:11.915Z,16.07
2018-11-03T01:27:40.649Z,15.80
2018-11-03T01:30:12.381Z,15.20
2018-11-03T01:32:41.140Z,14.15
2018-11-03T01:35:10.159Z,16.95
2018-11-03T01:37:39.445Z,16.15
2018-11-03T01:40:09.100Z,15.43
2018-11-03T01:42:38.177Z,16.42
2018-11-03T01:45:07.196Z,17.05
2018-11-03T01:47:36.263Z,16.00
2018-11-03T01:50:06.886Z,16.30
2018-11-03T01:52:36.443Z,16.17
2018-11-03T01:55:05.420Z,17.25
2018-11-03T01:57:34.056Z,17.23
2018-11-03T02:00:02.817Z,16.50
2018-11-03T02:02:31.543Z,16.62
2018-11-03T02:05:00.223Z,17.45
2018-11-03T02:07:29.011Z,16.48
2018-11-03T02:09:57.776Z,17.98
2018-11-03T02:12:26.493Z,16.65
2018-11-03T02:14:55.154Z,15.65
2018-11-03T02:17:23.791Z,15.25
2018-11-03T02:19:52.462Z,16.30
2018-11-03T02:22:21.104Z,15.75
2018-11-03T02:24:49.689Z,15.03
2018-11-03T02:27:18.313Z,15.20
2018-11-03T02:29:46.920Z,13.90
2018-11-03T02:32:15.551Z,14.80
2018-11-03T02:34:44.161Z,17.32
2018-11-03T02:37:12.848Z,15.90
2018-11-03T02:39:41.495Z,15.30
2018-11-03T02:42:10.143Z,15.00
2018-11-03T02:44:38.765Z,15.00
2018-11-03T02:47:07.566Z,17.55
2018-11-03T02:49:36.240Z,17.48
2018-11-03T02:52:04.972Z,17.45
2018-11-03T02:54:33.590Z,16.85
2018-11-03T02:57:02.323Z,14.45
2018-11-03T02:59:30.890Z,16.37
2018-11-03T03:01:59.466Z,15.23
2018-11-03T03:04:28.031Z,15.30
2018-11-03T03:06:56.569Z,16.70
2018-11-03T03:09:25.132Z,17.40
2018-11-03T03:11:53.719Z,17.62
2018-11-03T03:14:22.321Z,19.23
2018-11-03T03:16:50.950Z,18.32
2018-11-03T03:19:19.512Z,15.63
2018-11-03T03:21:48.117Z,17.98
2018-11-03T03:24:16.668Z,18.02
2018-11-03T03:26:45.282Z,19.45
2018-11-03T03:29:14.061Z,18.85
2018-11-03T03:31:42.564Z,18.95
2018-11-03T03:34:11.483Z,18.70
2018-11-03T03:36:40.069Z,20.57
2018-11-03T03:39:10.136Z,20.52
2018-11-03T03:41:38.929Z,21.23
2018-11-03T03:44:07.955Z,21.97
2018-11-03T03:46:36.557Z,19.77
2018-11-03T03:49:05.350Z,22.42
2018-11-03T03:51:33.947Z,19.87
2018-11-03T03:54:02.574Z,22.95
2018-11-03T03:56:31.165Z,23.12
2018-11-03T03:58:59.764Z,21.70
2018-11-03T04:01:28.338Z,21.73
2018-11-03T04:03:56.919Z,21.50
2018-11-03T04:06:25.542Z,21.73
2018-11-03T04:08:54.044Z,20.85
2018-11-03T04:11:22.626Z,19.85
2018-11-03T04:13:51.266Z,18.70
2018-11-03T04:16:20.067Z,23.00
2018-11-03T04:18:48.687Z,21.45
2018-11-03T04:21:21.866Z,23.70
2018-11-03T04:23:50.551Z,22.65
2018-11-03T04:26:19.140Z,24.00
2018-11-03T04:28:47.755Z,23.00
2018-11-03T04:31:16.315Z,23.50
2018-11-03T04:33:45.326Z,23.50
2018-11-03T04:36:14.009Z,21.50
2018-11-03T04:38:42.580Z,20.50
2018-11-03T04:41:11.137Z,19.95
2018-11-03T04:43:39.735Z,20.02
2018-11-03T04:46:08.351Z,20.97
2018-11-03T04:48:37.353Z,21.62
2018-11-03T04:51:06.431Z,22.02
2018-11-03T04:53:35.000Z,21.82
2018-11-03T04:56:03.570Z,20.10
2018-11-03T04:58:32.201Z,19.65
2018-11-03T05:01:00.795Z,22.30
2018-11-03T05:03:29.427Z,21.42
2018-11-03T05:05:57.976Z,20.62
2018-11-03T05:08:26.600Z,19.00
2018-11-03T05:10:55.269Z,22.20
2018-11-03T05:13:23.920Z,23.20
2018-11-03T05:15:52.567Z,20.20
2018-11-03T05:18:21.195Z,20.32
2018-11-03T05:20:49.831Z,18.57
2018-11-03T05:23:18.435Z,21.40
2018-11-03T05:25:46.993Z,21.12
2018-11-03T05:28:15.606Z,18.50
2018-11-03T05:30:44.236Z,19.37
2018-11-03T05:33:12.876Z,20.50
2018-11-03T05:35:41.515Z,23.38
2018-11-03T05:38:10.226Z,24.55
2018-11-03T05:40:38.831Z,21.55
2018-11-03T05:43:07.482Z,22.60
2018-11-03T05:45:36.185Z,22.32
2018-11-03T05:48:04.871Z,25.62
2018-11-03T05:50:33.495Z,26.60
2018-11-03T05:53:02.995Z,30.05
2018-11-03T05:55:31.677Z,25.92
2018-11-03T05:58:00.311Z,24.75
2018-11-03T06:00:28.911Z,30.97
2018-11-03T06:02:58.754Z,27.65
2018-11-03T06:05:27.398Z,29.52
2018-11-03T06:07:56.476Z,32.73
2018-11-03T06:10:25.068Z,32.08
2018-11-03T06:12:53.664Z,31.27
2018-11-03T06:15:22.280Z,31.15
2018-11-03T06:17:50.771Z,31.77
2018-11-03T06:20:19.309Z,30.35
2018-11-03T06:22:47.905Z,27.70
2018-11-03T06:25:16.934Z,27.65
2018-11-03T06:27:45.587Z,27.32
2018-11-03T06:30:14.202Z,27.45
2018-11-03T06:32:42.768Z,26.42
2018-11-03T06:35:11.967Z,33.00
2018-11-03T06:37:40.570Z,41.95
2018-11-03T06:40:09.710Z,45.95
2018-11-03T06:42:38.817Z,34.90
2018-11-03T06:45:08.545Z,26.82
2018-11-03T06:47:37.317Z,27.27
2018-11-03T06:50:07.044Z,28.87
2018-11-03T06:52:35.640Z,26.73
2018-11-03T06:55:04.292Z,25.32
2018-11-03T06:57:32.858Z,31.80
2018-11-03T07:00:01.392Z,26.85
2018-11-03T07:02:29.920Z,25.52
2018-11-03T07:04:58.520Z,25.40
2018-11-03T07:07:27.005Z,23.75
2018-11-03T07:09:55.555Z,22.77
2018-11-03T07:12:24.331Z,20.75
2018-11-03T07:14:52.734Z,20.10
2018-11-03T07:17:21.404Z,20.95
2018-11-03T07:19:49.925Z,20.48
2018-11-03T07:22:18.499Z,20.50
2018-11-03T07:24:47.053Z,20.82
2018-11-03T07:27:15.619Z,22.07
2018-11-03T07:29:44.259Z,19.87
2018-11-03T07:32:12.806Z,18.12
2018-11-03T07:34:41.393Z,18.52
2018-11-03T07:37:09.981Z,20.10
2018-11-03T07:39:38.542Z,20.20
2018-11-03T07:42:07.238Z,20.70
2018-11-03T07:44:35.957Z,19.32
2018-11-03T07:47:04.548Z,20.55
2018-11-03T07:49:33.086Z,21.48
2018-11-03T07:52:01.672Z,20.55
2018-11-03T07:54:30.223Z,22.35
2018-11-03T07:56:58.838Z,21.55
2018-11-03T07:59:27.378Z,21.40
2018-11-03T08:01:55.916Z,20.68
2018-11-03T08:04:24.462Z,22.67
2018-11-03T08:06:53.020Z,22.60
2018-11-03T08:09:21.669Z,26.50
2018-11-03T08:11:50.219Z,28.15
2018-11-03T08:14:18.862Z,24.50
2018-11-03T08:16:47.459Z,23.27
2018-11-03T08:19:16.079Z,30.20
2018-11-03T08:21:44.658Z,24.70
2018-11-03T08:24:13.185Z,24.20
2018-11-03T08:26:41.785Z,25.02
2018-11-03T08:29:10.357Z,24.07
2018-11-03T08:31:38.961Z,28.20
2018-11-03T08:34:07.568Z,30.35
2018-11-03T08:36:36.140Z,24.47
2018-11-03T08:39:06.228Z,23.18
2018-11-03T08:41:34.773Z,26.17
2018-11-03T08:44:03.409Z,21.10
2018-11-03T08:46:31.940Z,21.87
2018-11-03T08:49:00.699Z,21.70
2018-11-03T08:51:29.163Z,40.23
2018-11-03T08:53:57.696Z,19.57
2018-11-03T08:56:26.244Z,21.02
2018-11-03T08:58:54.828Z,21.15
2018-11-03T09:01:23.399Z,20.72
2018-11-03T09:03:51.940Z,20.82
2018-11-03T09:06:20.504Z,23.12
2018-11-03T09:08:49.078Z,20.75
2018-11-03T09:11:17.660Z,20.32
2018-11-03T09:13:46.210Z,22.98
2018-11-03T09:16:14.873Z,20.52
2018-11-03T09:18:43.478Z,21.57
2018-11-03T09:21:12.113Z,23.87
2018-11-03T09:23:40.735Z,24.37
2018-11-03T09:26:09.280Z,21.73
2018-11-03T09:28:37.867Z,21.90
2018-11-03T09:31:06.431Z,23.35
2018-11-03T09:33:34.992Z,22.17
2018-11-03T09:36:03.600Z,22.05
2018-11-03T09:38:32.219Z,19.87
2018-11-03T09:41:00.750Z,20.88
2018-11-03T09:43:29.347Z,20.27
2018-11-03T09:45:57.917Z,21.23
2018-11-03T09:48:26.475Z,21.85
2018-11-03T09:50:55.121Z,20.95
2018-11-03T09:53:23.638Z,21.27
2018-11-03T09:55:52.265Z,22.90
2018-11-03T09:58:20.818Z,21.85
2018-11-03T10:00:49.430Z,19.65
2018-11-03T10:03:18.001Z,22.10
2018-11-03T10:05:46.538Z,19.40
2018-11-03T10:08:15.089Z,20.40
2018-11-03T10:10:43.703Z,20.02
2018-11-03T10:13:12.221Z,20.37
2018-11-03T10:15:40.887Z,22.07
2018-11-03T10:18:09.417Z,24.95
2018-11-03T10:20:37.969Z,21.42
2018-11-03T10:23:06.581Z,25.10
2018-11-03T10:25:35.070Z,25.00
2018-11-03T10:28:03.635Z,24.92
2018-11-03T10:30:32.176Z,25.12
2018-11-03T10:33:00.722Z,24.15
2018-11-03T10:35:29.282Z,22.10
2018-11-03T10:37:57.843Z,22.35
2018-11-03T10:40:26.414Z,22.87
2018-11-03T10:42:55.035Z,21.20
2018-11-03T10:45:23.589Z,21.00
2018-11-03T10:47:52.216Z,21.77
2018-11-03T10:50:20.751Z,19.25
2018-11-03T10:52:49.306Z,21.00
2018-11-03T10:55:18.973Z,20.32
2018-11-03T10:57:47.620Z,19.90
2018-11-03T11:00:23.036Z,20.82
2018-11-03T11:02:57.277Z,19.20
2018-11-03T11:05:31.318Z,18.40
2018-11-03T11:08:05.162Z,17.17
2018-11-03T11:10:39.049Z,18.57
2018-11-03T11:13:15.124Z,22.07
2018-11-03T11:15:43.784Z,18.17
2018-11-03T11:18:12.316Z,18.80
2018-11-03T11:20:40.874Z,16.85
2018-11-03T11:23:09.469Z,16.65
2018-11-03T11:25:38.089Z,14.63
2018-11-03T11:28:07.024Z,14.90
2018-11-03T11:30:37.861Z,16.77
2018-11-03T11:33:08.510Z,16.80
2018-11-03T11:35:37.102Z,14.63
2018-11-03T11:38:06.586Z,15.00
2018-11-03T11:40:35.454Z,12.82
2018-11-03T11:43:04.118Z,12.70
2018-11-03T11:45:32.653Z,13.22
2018-11-03T11:48:01.212Z,13.30
2018-11-03T11:50:29.752Z,13.50
2018-11-03T11:52:58.318Z,12.18
2018-11-03T11:55:26.860Z,12.90
2018-11-03T11:57:55.426Z,12.05
2018-11-03T12:00:24.034Z,12.95
2018-11-03T12:02:52.555Z,13.25
2018-11-03T12:05:21.161Z,13.13
2018-11-03T12:07:49.738Z,13.25
2018-11-03T12:10:27.689Z,16.50
2018-11-03T12:12:56.312Z,17.45
2018-11-03T12:15:24.873Z,19.40
2018-11-03T12:17:53.425Z,16.85
2018-11-03T12:20:21.940Z,16.48
2018-11-03T12:22:50.526Z,16.93
2018-11-03T12:25:19.114Z,17.92
2018-11-03T12:27:47.672Z,17.48
2018-11-03T12:30:16.254Z,17.50
2018-11-03T12:32:44.830Z,16.48
2018-11-03T12:35:13.488Z,22.77
2018-11-03T12:37:42.017Z,20.72
2018-11-03T12:40:13.572Z,16.57
2018-11-03T12:42:42.133Z,15.53
2018-11-03T12:45:11.581Z,15.63
2018-11-03T12:47:40.728Z,17.60
2018-11-03T12:50:12.032Z,15.65
2018-11-03T12:52:40.572Z,16.60
2018-11-03T12:55:10.008Z,17.25
2018-11-03T12:57:39.106Z,18.37
2018-11-03T13:00:09.548Z,19.48
2018-11-03T13:02:38.567Z,18.50
2018-11-03T13:05:07.703Z,21.20
2018-11-03T13:07:36.415Z,24.15
2018-11-03T13:10:05.521Z,21.75
2018-11-03T13:12:34.085Z,19.70
2018-11-03T13:15:02.637Z,18.23
2018-11-03T13:17:31.162Z,18.50
2018-11-03T13:19:59.736Z,13.78
2018-11-03T13:22:29.128Z,15.60
2018-11-03T13:24:57.687Z,14.35
2018-11-03T13:27:26.253Z,14.03
2018-11-03T13:29:56.159Z,14.90
2018-11-03T13:32:24.707Z,15.70
2018-11-03T13:34:53.316Z,14.23
2018-11-03T13:37:21.871Z,14.25
2018-11-03T13:39:50.509Z,15.10
2018-11-03T13:42:19.155Z,17.15
2018-11-03T13:44:47.714Z,21.57
2018-11-03T13:47:16.341Z,17.07
2018-11-03T13:49:44.945Z,18.62
2018-11-03T13:52:13.484Z,18.70
2018-11-03T13:54:42.031Z,15.70
2018-11-03T13:57:10.698Z,15.95
2018-11-03T13:59:39.565Z,14.73
2018-11-03T14:02:08.097Z,15.40
2018-11-03T14:04:36.750Z,14.28
2018-11-03T14:07:05.558Z,14.05
2018-11-03T14:09:34.334Z,13.75
2018-11-03T14:12:02.923Z,13.83
2018-11-03T14:14:32.762Z,14.40
2018-11-03T14:17:01.385Z,15.43
2018-11-03T14:19:29.972Z,15.80
2018-11-03T14:21:58.526Z,14.43
2018-11-03T14:24:27.100Z,15.13
2018-11-03T14:26:55.669Z,14.75
2018-11-03T14:29:24.200Z,13.62
2018-11-03T14:31:52.850Z,14.90
2018-11-03T14:34:21.383Z,15.20
2018-11-03T14:36:49.936Z,15.93
2018-11-03T14:39:18.520Z,16.95
2018-11-03T14:41:47.078Z,15.65
2018-11-03T14:44:15.698Z,17.17
2018-11-03T14:46:44.275Z,18.40
2018-11-03T14:49:12.945Z,17.62
2018-11-03T14:51:41.646Z,15.70
2018-11-03T14:54:10.286Z,15.20
2018-11-03T14:56:38.845Z,15.83
2018-11-03T14:59:07.477Z,17.30
2018-11-03T15:01:36.065Z,15.00
2018-11-03T15:04:05.550Z,19.75
2018-11-03T15:06:34.124Z,18.73
2018-11-03T15:09:02.852Z,19.02
2018-11-03T15:11:31.376Z,16.87
2018-11-03T15:14:00.235Z,17.73
2018-11-03T15:16:28.627Z,16.85
2018-11-03T15:18:57.172Z,15.95
2018-11-03T15:21:25.790Z,16.00
2018-11-03T15:23:54.345Z,15.18
2018-11-03T15:26:22.914Z,14.70
2018-11-03T15:28:51.468Z,14.93
2018-11-03T15:31:20.024Z,15.05
2018-11-03T15:33:48.551Z,15.98
2018-11-03T15:36:17.077Z,16.35
2018-11-03T15:38:45.609Z,14.45
2018-11-03T15:41:14.185Z,15.93
2018-11-03T15:43:42.749Z,16.10
2018-11-03T15:46:11.299Z,16.17
2018-11-03T15:48:39.839Z,15.50
2018-11-03T15:51:08.409Z,17.10
2018-11-03T15:53:36.956Z,16.85
2018-11-03T15:56:05.845Z,17.32
2018-11-03T15:58:34.410Z,16.82
2018-11-03T16:01:02.991Z,16.32
2018-11-03T16:03:31.561Z,52.23
2018-11-03T16:06:00.170Z,18.62
2018-11-03T16:08:28.682Z,15.20
2018-11-03T16:10:57.309Z,17.85
2018-11-03T16:13:25.919Z,17.67
2018-11-03T16:15:54.438Z,18.95
2018-11-03T16:18:23.023Z,17.37
2018-11-03T16:20:51.574Z,17.77
2018-11-03T16:23:20.160Z,19.10
2018-11-03T16:25:48.734Z,19.50
2018-11-03T16:28:18.239Z,19.57
2018-11-03T16:30:46.768Z,17.40
2018-11-03T16:33:15.299Z,19.40
2018-11-03T16:35:43.959Z,18.75
2018-11-03T16:38:12.475Z,18.40
2018-11-03T16:40:41.043Z,20.40
2018-11-03T16:43:09.649Z,19.82
2018-11-03T16:45:38.327Z,18.45
2018-11-03T16:48:06.874Z,19.02
2018-11-03T16:50:35.447Z,20.60
2018-11-03T16:53:03.996Z,20.10
2018-11-03T16:55:32.705Z,18.75
2018-11-03T16:58:01.274Z,20.70
2018-11-03T17:00:29.812Z,19.70
2018-11-03T17:02:58.345Z,21.27
2018-11-03T17:05:27.002Z,20.30
2018-11-03T17:07:55.569Z,19.98
2018-11-03T17:10:24.187Z,19.57
2018-11-03T17:12:52.736Z,20.15
2018-11-03T17:15:21.315Z,20.15
2018-11-03T17:17:49.867Z,20.90
2018-11-03T17:20:18.439Z,20.20
2018-11-03T17:22:47.102Z,20.55
2018-11-03T17:25:15.736Z,19.75
2018-11-03T17:27:44.231Z,21.20
2018-11-03T17:30:14.138Z,21.57
2018-11-03T17:32:43.250Z,21.33
2018-11-03T17:35:12.244Z,23.30
2018-11-03T17:37:40.980Z,22.37
2018-11-03T17:40:10.242Z,20.80
2018-11-03T17:42:38.977Z,21.60
2018-11-03T17:45:08.732Z,22.30
2018-11-03T17:47:37.844Z,21.87
2018-11-03T17:50:07.894Z,21.97
2018-11-03T17:52:36.435Z,22.55
2018-11-03T17:55:05.924Z,21.00
2018-11-03T17:57:34.506Z,21.90
2018-11-03T18:00:03.338Z,22.55
2018-11-03T18:02:31.851Z,24.55
2018-11-03T18:05:00.390Z,24.10
2018-11-03T18:07:28.939Z,24.07
2018-11-03T18:09:57.457Z,23.52
2018-11-03T18:12:26.047Z,23.92
2018-11-03T18:14:54.599Z,24.32
2018-11-03T18:17:23.159Z,23.55
2018-11-03T18:19:51.763Z,23.32
2018-11-03T18:22:20.272Z,25.48
2018-11-03T18:24:48.802Z,25.40
2018-11-03T18:27:17.430Z,25.08
2018-11-03T18:29:45.970Z,25.75
2018-11-03T18:32:14.647Z,25.92
2018-11-03T18:34:43.322Z,26.27
2018-11-03T18:37:11.926Z,25.92
2018-11-03T18:39:40.474Z,25.27
2018-11-03T18:42:09.039Z,25.60
2018-11-03T18:44:37.606Z,25.97
2018-11-03T18:47:06.183Z,25.85
2018-11-03T18:49:34.802Z,27.60
2018-11-03T18:52:03.364Z,26.07
2018-11-03T18:54:31.981Z,25.43
2018-11-03T18:57:00.538Z,26.52
2018-11-03T18:59:29.066Z,27.87
2018-11-03T19:01:57.605Z,24.23
2018-11-03T19:04:26.155Z,27.02
2018-11-03T19:06:54.889Z,27.50
2018-11-03T19:09:23.504Z,26.33
2018-11-03T19:11:51.981Z,25.65
2018-11-03T19:14:20.536Z,24.95
2018-11-03T19:16:49.153Z,24.43
2018-11-03T19:19:17.671Z,25.70
2018-11-03T19:21:46.216Z,24.70
2018-11-03T19:24:14.809Z,24.95
2018-11-03T19:26:43.354Z,24.52
2018-11-03T19:29:12.024Z,24.72
2018-11-03T19:31:40.549Z,26.25
2018-11-03T19:34:09.100Z,25.37
2018-11-03T19:36:37.649Z,26.85
2018-11-03T19:39:07.872Z,24.57
2018-11-03T19:41:36.535Z,25.05
2018-11-03T19:44:05.207Z,23.92
2018-11-03T19:46:33.765Z,25.45
2018-11-03T19:49:02.291Z,24.72
2018-11-03T19:51:30.925Z,25.08
2018-11-03T19:53:59.460Z,25.52
2018-11-03T19:56:28.003Z,24.98
2018-11-03T19:58:56.553Z,23.42
2018-11-03T20:01:25.116Z,24.90
2018-11-03T20:03:53.680Z,22.10
2018-11-03T20:06:22.226Z,24.07
2018-11-03T20:08:50.775Z,24.35
2018-11-03T20:11:19.315Z,25.95
2018-11-03T20:13:47.979Z,24.77
2018-11-03T20:16:16.528Z,23.32
2018-11-03T20:18:45.101Z,23.80
2018-11-03T20:21:13.663Z,23.22
2018-11-03T20:23:42.182Z,24.35
2018-11-03T20:26:10.829Z,24.15
2018-11-03T20:28:39.319Z,23.67
2018-11-03T20:31:07.849Z,24.72
2018-11-03T20:33:36.389Z,24.75
2018-11-03T20:36:05.026Z,25.62
2018-11-03T20:38:33.578Z,23.18
2018-11-03T20:41:02.129Z,22.80
2018-11-03T20:43:30.705Z,23.07
2018-11-03T20:45:59.264Z,24.05
2018-11-03T20:48:27.808Z,22.73
2018-11-03T20:51:01.735Z,22.45
2018-11-03T20:53:30.279Z,22.62
2018-11-03T20:55:58.872Z,22.02
2018-11-03T20:58:27.418Z,18.92
2018-11-03T21:00:55.995Z,22.55
2018-11-03T21:03:24.533Z,21.37
2018-11-03T21:05:53.074Z,20.80
2018-11-03T21:08:21.617Z,20.40
2018-11-03T21:10:50.148Z,21.60
2018-11-03T21:13:18.665Z,20.82
2018-11-03T21:15:47.606Z,21.33
2018-11-03T21:18:16.126Z,20.02
2018-11-03T21:20:44.650Z,20.48
2018-11-03T21:23:13.231Z,20.75
2018-11-03T21:25:41.730Z,20.82
2018-11-03T21:28:10.257Z,22.00
2018-11-03T21:30:38.797Z,20.08
2018-11-03T21:33:07.488Z,21.65
2018-11-03T21:35:35.893Z,21.33
2018-11-03T21:38:04.490Z,21.70
2018-11-03T21:40:33.091Z,22.42
2018-11-03T21:43:01.617Z,21.65
2018-11-03T21:45:30.246Z,20.90
2018-11-03T21:47:58.802Z,21.70
2018-11-03T21:50:27.394Z,19.40
2018-11-03T21:52:55.924Z,20.15
2018-11-03T21:55:24.582Z,21.02
2018-11-03T21:57:53.116Z,21.07
2018-11-03T22:00:21.677Z,22.05
2018-11-03T22:02:50.230Z,20.77
2018-11-03T22:05:18.792Z,20.30
2018-11-03T22:07:47.344Z,19.80
2018-11-03T22:10:15.871Z,20.75
2018-11-03T22:12:44.427Z,19.82
2018-11-03T22:15:12.965Z,22.60
2018-11-03T22:17:41.493Z,19.98
2018-11-03T22:20:11.091Z,21.30
2018-11-03T22:22:40.300Z,19.37
2018-11-03T22:25:10.076Z,20.72
2018-11-03T22:27:38.755Z,20.30
2018-11-03T22:30:09.184Z,21.10
2018-11-03T22:32:37.783Z,20.68
2018-11-03T22:35:06.770Z,19.80
2018-11-03T22:37:35.296Z,19.82
2018-11-03T22:40:03.999Z,20.40
2018-11-03T22:42:32.554Z,20.37
2018-11-03T22:45:01.059Z,18.95
2018-11-03T22:47:29.602Z,21.00
2018-11-03T22:49:58.138Z,20.92
2018-11-03T22:52:26.750Z,20.55
2018-11-03T22:54:55.327Z,20.15
2018-11-03T22:57:23.892Z,18.55
2018-11-03T22:59:52.450Z,19.57
2018-11-03T23:02:21.007Z,20.70
2018-11-03T23:04:49.544Z,20.12
2018-11-03T23:07:18.095Z,20.27
2018-11-03T23:09:46.690Z,21.40
2018-11-03T23:12:15.220Z,20.45
2018-11-03T23:14:43.763Z,19.98
2018-11-03T23:17:12.320Z,21.68
2018-11-03T23:19:40.972Z,20.23
2018-11-03T23:22:09.608Z,21.20
2018-11-03T23:24:38.112Z,21.57
2018-11-03T23:27:06.699Z,21.27
2018-11-03T23:29:35.299Z,19.62
2018-11-03T23:32:03.841Z,21.77
2018-11-03T23:34:32.387Z,24.10
2018-11-03T23:37:00.912Z,23.07
2018-11-03T23:39:29.441Z,21.05
2018-11-03T23:41:57.978Z,22.22
2018-11-03T23:44:26.534Z,23.55
2018-11-03T23:46:55.070Z,22.52
2018-11-03T23:49:23.589Z,25.08
2018-11-03T23:51:52.151Z,25.27
2018-11-03T23:54:20.678Z,23.15
2018-11-03T23:56:49.285Z,23.27
2018-11-03T23:59:17.902Z,24.43
